sensor_id;sensor_type;location;lat;lon;timestamp;pressure;altitude;pressure_sealevel;temperature;humidity
51781;BME280;37844;57.126;24.288;2023-09-07T00:01:06;102849.03;;;13.66;100.00
51781;BME280;37844;57.126;24.288;2023-09-07T00:03:51;102852.47;;;13.65;100.00
51781;BME280;37844;57.126;24.288;2023-09-07T00:06:35;102851.56;;;13.39;100.00
51781;BME280;37844;57.126;24.288;2023-09-07T00:09:19;102855.25;;;13.22;100.00
51781;BME280;37844;57.126;24.288;2023-09-07T00:12:05;102855.75;;;13.35;100.00
51781;BME280;37844;57.126;24.288;2023-09-07T00:14:50;102866.69;;;13.52;100.00
51781;BME280;37844;57.126;24.288;2023-09-07T00:17:34;102862.66;;;13.61;100.00
51781;BME280;37844;57.126;24.288;2023-09-07T00:20:18;102859.25;;;13.62;100.00
51781;BME280;37844;57.126;24.288;2023-09-07T00:23:03;102860.16;;;13.62;100.00
51781;BME280;37844;57.126;24.288;2023-09-07T00:25:48;102871.22;;;13.58;100.00
51781;BME280;37844;57.126;24.288;2023-09-07T00:28:32;102871.16;;;13.56;100.00
51781;BME280;37844;57.126;24.288;2023-09-07T00:31:16;102865.88;;;13.53;100.00
51781;BME280;37844;57.126;24.288;2023-09-07T00:34:00;102871.00;;;13.52;100.00
51781;BME280;37844;57.126;24.288;2023-09-07T00:36:44;102874.34;;;13.48;100.00
51781;BME280;37844;57.126;24.288;2023-09-07T00:39:28;102870.84;;;13.47;100.00
51781;BME280;37844;57.126;24.288;2023-09-07T00:42:12;102876.84;;;13.46;100.00
51781;BME280;37844;57.126;24.288;2023-09-07T00:44:56;102880.13;;;13.41;100.00
51781;BME280;37844;57.126;24.288;2023-09-07T00:47:41;102877.41;;;13.38;100.00
51781;BME280;37844;57.126;24.288;2023-09-07T00:50:25;102872.28;;;13.39;100.00
51781;BME280;37844;57.126;24.288;2023-09-07T00:53:10;102871.34;;;13.37;100.00
51781;BME280;37844;57.126;24.288;2023-09-07T00:55:54;102880.06;;;13.39;100.00
51781;BME280;37844;57.126;24.288;2023-09-07T00:58:39;102875.59;;;13.35;100.00
51781;BME280;37844;57.126;24.288;2023-09-07T01:01:23;102892.13;;;13.39;100.00
51781;BME280;37844;57.126;24.288;2023-09-07T01:04:07;102892.94;;;13.38;100.00
51781;BME280;37844;57.126;24.288;2023-09-07T01:07:03;102889.66;;;13.42;100.00
51781;BME280;37844;57.126;24.288;2023-09-07T01:09:56;102898.84;;;13.33;100.00
51781;BME280;37844;57.126;24.288;2023-09-07T01:12:41;102888.91;;;13.22;100.00
51781;BME280;37844;57.126;24.288;2023-09-07T01:15:25;102893.84;;;13.15;100.00
51781;BME280;37844;57.126;24.288;2023-09-07T01:18:10;102891.94;;;13.10;100.00
51781;BME280;37844;57.126;24.288;2023-09-07T01:20:55;102884.09;;;13.08;100.00
51781;BME280;37844;57.126;24.288;2023-09-07T01:23:42;102894.56;;;13.11;100.00
51781;BME280;37844;57.126;24.288;2023-09-07T01:26:27;102883.16;;;13.06;100.00
51781;BME280;37844;57.126;24.288;2023-09-07T01:29:12;102886.63;;;13.07;100.00
51781;BME280;37844;57.126;24.288;2023-09-07T01:31:56;102877.91;;;13.05;100.00
51781;BME280;37844;57.126;24.288;2023-09-07T01:34:41;102888.22;;;13.03;100.00
51781;BME280;37844;57.126;24.288;2023-09-07T01:37:25;102886.28;;;12.98;100.00
51781;BME280;37844;57.126;24.288;2023-09-07T01:40:09;102875.00;;;12.96;100.00
51781;BME280;37844;57.126;24.288;2023-09-07T01:42:53;102883.38;;;12.88;100.00
51781;BME280;37844;57.126;24.288;2023-09-07T01:45:37;102878.13;;;12.87;100.00
51781;BME280;37844;57.126;24.288;2023-09-07T01:48:21;102877.25;;;12.86;100.00
51781;BME280;37844;57.126;24.288;2023-09-07T01:51:05;102883.19;;;12.84;100.00
51781;BME280;37844;57.126;24.288;2023-09-07T01:53:49;102882.00;;;12.76;100.00
51781;BME280;37844;57.126;24.288;2023-09-07T01:56:33;102875.66;;;12.67;100.00
51781;BME280;37844;57.126;24.288;2023-09-07T01:59:17;102877.22;;;12.64;100.00
51781;BME280;37844;57.126;24.288;2023-09-07T02:02:01;102884.81;;;12.59;100.00
51781;BME280;37844;57.126;24.288;2023-09-07T02:04:45;102877.03;;;12.59;100.00
51781;BME280;37844;57.126;24.288;2023-09-07T02:07:30;102877.81;;;12.57;100.00
51781;BME280;37844;57.126;24.288;2023-09-07T02:10:13;102879.34;;;12.51;100.00
51781;BME280;37844;57.126;24.288;2023-09-07T02:12:59;102879.16;;;12.47;100.00
51781;BME280;37844;57.126;24.288;2023-09-07T02:15:43;102877.22;;;12.41;100.00
51781;BME280;37844;57.126;24.288;2023-09-07T02:18:27;102884.97;;;12.41;100.00
51781;BME280;37844;57.126;24.288;2023-09-07T02:21:11;102883.28;;;12.42;100.00
51781;BME280;37844;57.126;24.288;2023-09-07T02:24:02;102876.97;;;12.35;100.00
51781;BME280;37844;57.126;24.288;2023-09-07T02:26:46;102876.38;;;12.20;100.00
51781;BME280;37844;57.126;24.288;2023-09-07T02:29:30;102885.00;;;12.20;100.00
51781;BME280;37844;57.126;24.288;2023-09-07T02:32:14;102888.91;;;12.11;100.00
51781;BME280;37844;57.126;24.288;2023-09-07T02:34:58;102875.41;;;11.97;100.00
51781;BME280;37844;57.126;24.288;2023-09-07T02:37:42;102881.78;;;12.05;100.00
51781;BME280;37844;57.126;24.288;2023-09-07T02:40:26;102896.66;;;12.11;100.00
51781;BME280;37844;57.126;24.288;2023-09-07T02:43:11;102899.47;;;11.96;100.00
51781;BME280;37844;57.126;24.288;2023-09-07T02:45:55;102892.75;;;11.99;100.00
51781;BME280;37844;57.126;24.288;2023-09-07T02:48:39;102907.22;;;11.96;100.00
51781;BME280;37844;57.126;24.288;2023-09-07T02:51:24;102906.34;;;11.95;100.00
51781;BME280;37844;57.126;24.288;2023-09-07T02:54:08;102896.97;;;11.97;100.00
51781;BME280;37844;57.126;24.288;2023-09-07T02:56:52;102912.47;;;11.97;100.00
51781;BME280;37844;57.126;24.288;2023-09-07T02:59:36;102910.78;;;11.78;100.00
51781;BME280;37844;57.126;24.288;2023-09-07T03:02:20;102919.22;;;11.74;100.00
51781;BME280;37844;57.126;24.288;2023-09-07T03:05:05;102917.53;;;11.55;100.00
51781;BME280;37844;57.126;24.288;2023-09-07T03:07:49;102921.16;;;11.59;100.00
51781;BME280;37844;57.126;24.288;2023-09-07T03:10:36;102929.91;;;11.62;100.00
51781;BME280;37844;57.126;24.288;2023-09-07T03:13:24;102935.22;;;11.65;100.00
51781;BME280;37844;57.126;24.288;2023-09-07T03:16:08;102933.50;;;11.66;100.00
51781;BME280;37844;57.126;24.288;2023-09-07T03:18:52;102931.56;;;11.60;100.00
51781;BME280;37844;57.126;24.288;2023-09-07T03:21:36;102930.53;;;11.57;100.00
51781;BME280;37844;57.126;24.288;2023-09-07T03:24:20;102934.94;;;11.59;100.00
51781;BME280;37844;57.126;24.288;2023-09-07T03:27:05;102934.81;;;11.56;100.00
51781;BME280;37844;57.126;24.288;2023-09-07T03:29:51;102938.34;;;11.58;100.00
51781;BME280;37844;57.126;24.288;2023-09-07T03:32:35;102942.75;;;11.61;100.00
51781;BME280;37844;57.126;24.288;2023-09-07T03:35:19;102930.53;;;11.57;100.00
51781;BME280;37844;57.126;24.288;2023-09-07T03:38:04;102935.81;;;11.60;100.00
51781;BME280;37844;57.126;24.288;2023-09-07T03:40:47;102946.22;;;11.61;100.00
51781;BME280;37844;57.126;24.288;2023-09-07T03:43:31;102945.28;;;11.59;100.00
51781;BME280;37844;57.126;24.288;2023-09-07T03:46:15;102945.28;;;11.59;100.00
51781;BME280;37844;57.126;24.288;2023-09-07T03:48:59;102954.72;;;11.59;100.00
51781;BME280;37844;57.126;24.288;2023-09-07T03:51:43;102956.22;;;11.54;100.00
51781;BME280;37844;57.126;24.288;2023-09-07T03:54:27;102957.66;;;11.47;100.00
51781;BME280;37844;57.126;24.288;2023-09-07T03:57:11;102963.75;;;11.49;100.00
51781;BME280;37844;57.126;24.288;2023-09-07T03:59:56;102961.53;;;11.57;100.00
51781;BME280;37844;57.126;24.288;2023-09-07T04:02:40;102964.22;;;11.60;100.00
51781;BME280;37844;57.126;24.288;2023-09-07T04:05:24;102970.22;;;11.59;100.00
51781;BME280;37844;57.126;24.288;2023-09-07T04:08:08;102966.81;;;11.60;100.00
51781;BME280;37844;57.126;24.288;2023-09-07T04:10:53;102968.66;;;11.62;100.00
51781;BME280;37844;57.126;24.288;2023-09-07T04:13:37;102969.41;;;11.60;100.00
51781;BME280;37844;57.126;24.288;2023-09-07T04:16:21;102972.25;;;11.66;100.00
51781;BME280;37844;57.126;24.288;2023-09-07T04:19:05;102967.56;;;11.77;100.00
51781;BME280;37844;57.126;24.288;2023-09-07T04:21:49;102971.53;;;11.88;100.00
51781;BME280;37844;57.126;24.288;2023-09-07T04:24:32;102966.56;;;11.93;100.00
51781;BME280;37844;57.126;24.288;2023-09-07T04:27:17;102976.84;;;12.12;100.00
51781;BME280;37844;57.126;24.288;2023-09-07T04:30:00;102973.97;;;12.25;100.00
51781;BME280;37844;57.126;24.288;2023-09-07T04:32:44;102966.84;;;12.41;100.00
51781;BME280;37844;57.126;24.288;2023-09-07T04:35:29;102978.91;;;12.61;100.00
51781;BME280;37844;57.126;24.288;2023-09-07T04:38:17;102988.09;;;12.76;100.00
51781;BME280;37844;57.126;24.288;2023-09-07T04:41:11;102986.53;;;13.02;100.00
51781;BME280;37844;57.126;24.288;2023-09-07T04:43:56;102988.47;;;13.07;100.00
51781;BME280;37844;57.126;24.288;2023-09-07T04:46:41;102988.38;;;13.27;100.00
51781;BME280;37844;57.126;24.288;2023-09-07T04:49:25;102997.63;;;13.43;100.00
51781;BME280;37844;57.126;24.288;2023-09-07T04:52:10;103000.56;;;13.52;100.00
51781;BME280;37844;57.126;24.288;2023-09-07T04:54:54;102996.72;;;13.65;100.00
51781;BME280;37844;57.126;24.288;2023-09-07T04:57:38;103005.09;;;13.82;100.00
51781;BME280;37844;57.126;24.288;2023-09-07T05:00:22;103002.88;;;13.92;100.00
51781;BME280;37844;57.126;24.288;2023-09-07T05:03:06;103012.00;;;13.81;100.00
51781;BME280;37844;57.126;24.288;2023-09-07T05:05:52;103011.78;;;13.75;100.00
51781;BME280;37844;57.126;24.288;2023-09-07T05:08:37;103000.47;;;13.73;100.00
51781;BME280;37844;57.126;24.288;2023-09-07T05:11:20;103001.31;;;13.72;100.00
51781;BME280;37844;57.126;24.288;2023-09-07T05:14:04;103003.06;;;13.73;100.00
51781;BME280;37844;57.126;24.288;2023-09-07T05:16:48;102999.53;;;13.71;100.00
51781;BME280;37844;57.126;24.288;2023-09-07T05:19:33;103007.03;;;13.87;100.00
51781;BME280;37844;57.126;24.288;2023-09-07T05:22:18;103010.03;;;13.99;100.00
51781;BME280;37844;57.126;24.288;2023-09-07T05:25:04;103014.63;;;14.07;100.00
51781;BME280;37844;57.126;24.288;2023-09-07T05:27:48;103008.03;;;14.16;100.00
51781;BME280;37844;57.126;24.288;2023-09-07T05:30:33;103007.63;;;14.30;100.00
51781;BME280;37844;57.126;24.288;2023-09-07T05:33:17;102996.44;;;14.56;100.00
51781;BME280;37844;57.126;24.288;2023-09-07T05:36:03;102996.78;;;14.94;100.00
51781;BME280;37844;57.126;24.288;2023-09-07T05:38:47;103005.06;;;15.40;100.00
51781;BME280;37844;57.126;24.288;2023-09-07T05:41:31;103000.59;;;15.95;100.00
51781;BME280;37844;57.126;24.288;2023-09-07T05:44:15;103006.00;;;16.37;100.00
51781;BME280;37844;57.126;24.288;2023-09-07T05:46:59;103007.81;;;17.12;100.00
51781;BME280;37844;57.126;24.288;2023-09-07T05:49:45;103001.00;;;17.58;100.00
51781;BME280;37844;57.126;24.288;2023-09-07T05:52:30;102994.94;;;18.05;100.00
51781;BME280;37844;57.126;24.288;2023-09-07T05:55:14;103003.09;;;18.77;100.00
51781;BME280;37844;57.126;24.288;2023-09-07T05:57:58;103005.88;;;19.52;100.00
51781;BME280;37844;57.126;24.288;2023-09-07T06:00:43;102990.94;;;20.25;100.00
51781;BME280;37844;57.126;24.288;2023-09-07T06:03:27;102990.72;;;21.17;100.00
51781;BME280;37844;57.126;24.288;2023-09-07T06:06:11;102994.56;;;22.23;99.32
51781;BME280;37844;57.126;24.288;2023-09-07T06:08:56;102988.34;;;22.14;92.12
51781;BME280;37844;57.126;24.288;2023-09-07T06:11:40;102998.88;;;22.08;90.46
51781;BME280;37844;57.126;24.288;2023-09-07T06:14:24;103002.38;;;22.05;88.39
51781;BME280;37844;57.126;24.288;2023-09-07T06:17:08;103005.88;;;22.07;86.92
51781;BME280;37844;57.126;24.288;2023-09-07T06:19:52;103006.78;;;22.41;84.35
51781;BME280;37844;57.126;24.288;2023-09-07T06:22:36;103006.78;;;22.58;81.72
51781;BME280;37844;57.126;24.288;2023-09-07T06:25:19;103010.97;;;23.47;78.92
51781;BME280;37844;57.126;24.288;2023-09-07T06:28:05;103002.75;;;24.01;77.03
51781;BME280;37844;57.126;24.288;2023-09-07T06:30:50;103007.72;;;25.27;73.63
51781;BME280;37844;57.126;24.288;2023-09-07T06:33:34;103004.88;;;26.05;70.16
51781;BME280;37844;57.126;24.288;2023-09-07T06:36:18;103005.63;;;27.11;67.63
51781;BME280;37844;57.126;24.288;2023-09-07T06:39:02;102995.03;;;28.27;62.94
51781;BME280;37844;57.126;24.288;2023-09-07T06:41:46;103001.34;;;29.22;59.97
51781;BME280;37844;57.126;24.288;2023-09-07T06:44:33;102996.13;;;30.03;57.35
51781;BME280;37844;57.126;24.288;2023-09-07T06:47:18;102992.88;;;30.72;55.02
51781;BME280;37844;57.126;24.288;2023-09-07T06:50:02;102998.47;;;31.36;53.00
51781;BME280;37844;57.126;24.288;2023-09-07T06:52:46;103006.94;;;31.47;51.64
51781;BME280;37844;57.126;24.288;2023-09-07T06:55:30;103001.19;;;32.02;49.96
51781;BME280;37844;57.126;24.288;2023-09-07T06:58:14;103012.97;;;32.60;47.82
51781;BME280;37844;57.126;24.288;2023-09-07T07:00:59;103005.94;;;32.78;46.91
51781;BME280;37844;57.126;24.288;2023-09-07T07:03:43;103008.31;;;33.61;46.05
51781;BME280;37844;57.126;24.288;2023-09-07T07:06:27;103015.25;;;34.36;44.78
51781;BME280;37844;57.126;24.288;2023-09-07T07:09:11;103006.09;;;34.58;43.84
51781;BME280;37844;57.126;24.288;2023-09-07T07:11:55;103010.72;;;35.05;43.12
51781;BME280;37844;57.126;24.288;2023-09-07T07:14:39;103003.69;;;35.82;41.33
51781;BME280;37844;57.126;24.288;2023-09-07T07:17:23;103009.19;;;36.11;41.06
51781;BME280;37844;57.126;24.288;2023-09-07T07:20:07;103004.41;;;36.30;40.06
51781;BME280;37844;57.126;24.288;2023-09-07T07:22:51;103010.00;;;36.27;40.63
51781;BME280;37844;57.126;24.288;2023-09-07T07:25:35;103002.44;;;36.34;40.06
51781;BME280;37844;57.126;24.288;2023-09-07T07:28:20;103003.25;;;36.64;39.29
51781;BME280;37844;57.126;24.288;2023-09-07T07:31:08;103001.31;;;36.81;39.05
51781;BME280;37844;57.126;24.288;2023-09-07T07:33:53;103011.03;;;36.69;39.50
51781;BME280;37844;57.126;24.288;2023-09-07T07:36:37;102998.22;;;36.44;39.12
51781;BME280;37844;57.126;24.288;2023-09-07T07:39:21;102992.56;;;36.48;38.77
51781;BME280;37844;57.126;24.288;2023-09-07T07:42:05;103007.38;;;36.25;38.11
51781;BME280;37844;57.126;24.288;2023-09-07T07:44:50;103003.56;;;36.29;38.44
51781;BME280;37844;57.126;24.288;2023-09-07T07:47:34;103007.88;;;36.32;38.62
51781;BME280;37844;57.126;24.288;2023-09-07T07:50:18;103010.38;;;36.35;38.61
51781;BME280;37844;57.126;24.288;2023-09-07T07:53:02;102998.25;;;35.04;38.84
51781;BME280;37844;57.126;24.288;2023-09-07T07:55:47;103009.47;;;34.95;39.24
51781;BME280;37844;57.126;24.288;2023-09-07T07:58:32;103009.19;;;35.33;39.39
51781;BME280;37844;57.126;24.288;2023-09-07T08:01:17;103016.88;;;35.39;40.07
51781;BME280;37844;57.126;24.288;2023-09-07T08:04:02;103020.06;;;34.65;41.38
51781;BME280;37844;57.126;24.288;2023-09-07T08:06:46;103021.78;;;34.48;42.00
51781;BME280;37844;57.126;24.288;2023-09-07T08:09:30;103009.94;;;34.70;42.10
51781;BME280;37844;57.126;24.288;2023-09-07T08:12:14;103011.44;;;34.06;42.24
51781;BME280;37844;57.126;24.288;2023-09-07T08:14:58;103019.00;;;33.42;42.93
51781;BME280;37844;57.126;24.288;2023-09-07T08:17:42;103020.75;;;32.85;43.25
51781;BME280;37844;57.126;24.288;2023-09-07T08:20:26;103019.97;;;32.42;44.58
51781;BME280;37844;57.126;24.288;2023-09-07T08:23:11;103024.94;;;32.08;45.81
51781;BME280;37844;57.126;24.288;2023-09-07T08:25:55;103025.16;;;32.24;45.24
51781;BME280;37844;57.126;24.288;2023-09-07T08:28:40;103033.16;;;32.24;46.18
51781;BME280;37844;57.126;24.288;2023-09-07T08:31:23;103025.16;;;32.45;45.19
51781;BME280;37844;57.126;24.288;2023-09-07T08:34:08;103019.38;;;32.56;45.44
51781;BME280;37844;57.126;24.288;2023-09-07T08:36:55;103031.63;;;32.19;45.92
51781;BME280;37844;57.126;24.288;2023-09-07T08:39:42;103027.91;;;32.23;46.00
51781;BME280;37844;57.126;24.288;2023-09-07T08:42:27;103024.19;;;32.05;47.35
51781;BME280;37844;57.126;24.288;2023-09-07T08:45:14;103024.81;;;31.20;47.91
51781;BME280;37844;57.126;24.288;2023-09-07T08:48:04;103029.88;;;30.29;47.95
51781;BME280;37844;57.126;24.288;2023-09-07T08:50:49;103031.66;;;29.14;49.77
51781;BME280;37844;57.126;24.288;2023-09-07T08:53:35;103033.00;;;28.96;51.60
51781;BME280;37844;57.126;24.288;2023-09-07T08:56:20;103017.34;;;28.54;52.71
51781;BME280;37844;57.126;24.288;2023-09-07T08:59:05;103017.47;;;28.83;54.53
51781;BME280;37844;57.126;24.288;2023-09-07T09:01:49;103008.81;;;29.38;53.08
51781;BME280;37844;57.126;24.288;2023-09-07T09:04:33;103008.03;;;29.04;52.82
51781;BME280;37844;57.126;24.288;2023-09-07T09:07:17;103009.91;;;28.33;53.46
51781;BME280;37844;57.126;24.288;2023-09-07T09:10:05;103018.63;;;28.02;54.01
51781;BME280;37844;57.126;24.288;2023-09-07T09:12:49;103005.53;;;27.96;54.43
51781;BME280;37844;57.126;24.288;2023-09-07T09:15:33;103016.34;;;27.48;55.27
51781;BME280;37844;57.126;24.288;2023-09-07T09:18:17;103014.59;;;27.03;56.50
51781;BME280;37844;57.126;24.288;2023-09-07T09:21:02;103015.81;;;26.87;57.14
51781;BME280;37844;57.126;24.288;2023-09-07T09:23:48;103009.06;;;26.69;57.50
51781;BME280;37844;57.126;24.288;2023-09-07T09:26:33;103007.69;;;26.48;58.00
51781;BME280;37844;57.126;24.288;2023-09-07T09:29:22;103002.31;;;26.00;59.41
51781;BME280;37844;57.126;24.288;2023-09-07T09:32:07;103019.88;;;26.02;62.33
51781;BME280;37844;57.126;24.288;2023-09-07T09:34:51;103010.16;;;26.05;62.05
51781;BME280;37844;57.126;24.288;2023-09-07T09:37:45;103010.13;;;26.60;62.43
51781;BME280;37844;57.126;24.288;2023-09-07T09:40:34;103004.00;;;26.58;61.54
51781;BME280;37844;57.126;24.288;2023-09-07T09:43:21;103016.78;;;26.32;62.24
51781;BME280;37844;57.126;24.288;2023-09-07T09:46:06;103018.31;;;25.91;61.09
51781;BME280;37844;57.126;24.288;2023-09-07T09:48:52;103018.13;;;25.38;61.43
51781;BME280;37844;57.126;24.288;2023-09-07T09:51:38;103018.06;;;25.44;63.58
51781;BME280;37844;57.126;24.288;2023-09-07T09:54:23;103018.66;;;25.65;63.60
51781;BME280;37844;57.126;24.288;2023-09-07T09:57:07;103016.72;;;25.77;62.40
51781;BME280;37844;57.126;24.288;2023-09-07T09:59:51;103013.66;;;25.43;64.49
51781;BME280;37844;57.126;24.288;2023-09-07T10:02:37;103014.34;;;25.60;69.11
51781;BME280;37844;57.126;24.288;2023-09-07T10:05:23;103015.06;;;25.70;66.37
51781;BME280;37844;57.126;24.288;2023-09-07T10:08:15;103006.66;;;25.41;65.55
51781;BME280;37844;57.126;24.288;2023-09-07T10:11:07;103005.66;;;25.51;63.90
51781;BME280;37844;57.126;24.288;2023-09-07T10:13:57;102998.75;;;25.41;64.91
51781;BME280;37844;57.126;24.288;2023-09-07T10:16:45;103002.34;;;25.33;63.05
51781;BME280;37844;57.126;24.288;2023-09-07T10:19:30;103002.84;;;24.90;64.65
51781;BME280;37844;57.126;24.288;2023-09-07T10:22:21;102996.31;;;24.34;64.05
51781;BME280;37844;57.126;24.288;2023-09-07T10:25:21;102995.72;;;24.01;65.40
51781;BME280;37844;57.126;24.288;2023-09-07T10:28:05;103010.72;;;23.88;66.64
51781;BME280;37844;57.126;24.288;2023-09-07T10:34:07;102994.09;;;23.83;66.20
51781;BME280;37844;57.126;24.288;2023-09-07T10:36:56;102999.47;;;23.57;67.33
51781;BME280;37844;57.126;24.288;2023-09-07T10:39:41;102983.72;;;23.51;68.47
51781;BME280;37844;57.126;24.288;2023-09-07T10:42:28;102992.56;;;23.38;70.28
51781;BME280;37844;57.126;24.288;2023-09-07T10:45:14;102988.22;;;23.31;73.47
51781;BME280;37844;57.126;24.288;2023-09-07T10:47:59;102989.06;;;23.37;76.00
51781;BME280;37844;57.126;24.288;2023-09-07T10:50:44;102986.31;;;23.56;74.92
51781;BME280;37844;57.126;24.288;2023-09-07T10:53:30;102990.69;;;23.60;71.17
51781;BME280;37844;57.126;24.288;2023-09-07T10:56:15;102990.66;;;23.70;69.66
51781;BME280;37844;57.126;24.288;2023-09-07T10:58:59;102987.13;;;23.68;72.36
51781;BME280;37844;57.126;24.288;2023-09-07T11:01:46;102984.59;;;23.55;74.38
51781;BME280;37844;57.126;24.288;2023-09-07T11:04:30;102981.00;;;23.65;72.87
51781;BME280;37844;57.126;24.288;2023-09-07T11:07:15;102988.97;;;23.54;75.08
51781;BME280;37844;57.126;24.288;2023-09-07T11:09:59;102979.38;;;23.47;76.13
51781;BME280;37844;57.126;24.288;2023-09-07T11:12:43;102976.72;;;23.50;75.57
51781;BME280;37844;57.126;24.288;2023-09-07T11:15:29;102981.06;;;23.56;73.78
51781;BME280;37844;57.126;24.288;2023-09-07T11:18:13;102983.81;;;23.31;74.23
51781;BME280;37844;57.126;24.288;2023-09-07T11:20:57;102977.78;;;23.09;74.21
51781;BME280;37844;57.126;24.288;2023-09-07T11:23:44;102976.91;;;22.92;76.21
51781;BME280;37844;57.126;24.288;2023-09-07T11:26:29;102972.53;;;22.89;75.68
51781;BME280;37844;57.126;24.288;2023-09-07T11:29:16;102973.44;;;22.82;74.10
51781;BME280;37844;57.126;24.288;2023-09-07T11:32:11;102970.78;;;22.90;73.73
51781;BME280;37844;57.126;24.288;2023-09-07T11:34:55;102977.78;;;22.95;76.28
51781;BME280;37844;57.126;24.288;2023-09-07T11:37:39;102973.38;;;22.94;74.17
51781;BME280;37844;57.126;24.288;2023-09-07T11:40:24;102966.41;;;22.99;73.58
51781;BME280;37844;57.126;24.288;2023-09-07T11:43:08;102960.28;;;22.77;74.55
51781;BME280;37844;57.126;24.288;2023-09-07T11:45:52;102962.94;;;22.76;75.29
51781;BME280;37844;57.126;24.288;2023-09-07T11:48:36;102967.31;;;22.77;74.04
51781;BME280;37844;57.126;24.288;2023-09-07T11:51:20;102971.72;;;22.73;74.69
51781;BME280;37844;57.126;24.288;2023-09-07T11:54:05;102975.19;;;22.83;74.59
51781;BME280;37844;57.126;24.288;2023-09-07T11:56:49;102974.31;;;22.79;74.71
51781;BME280;37844;57.126;24.288;2023-09-07T11:59:33;102983.97;;;22.63;73.48
51781;BME280;37844;57.126;24.288;2023-09-07T12:02:17;102979.66;;;22.36;73.70
51781;BME280;37844;57.126;24.288;2023-09-07T12:05:05;102975.25;;;22.32;76.23
51781;BME280;37844;57.126;24.288;2023-09-07T12:07:52;102974.38;;;22.30;75.68
51781;BME280;37844;57.126;24.288;2023-09-07T12:10:36;102970.00;;;22.46;73.04
51781;BME280;37844;57.126;24.288;2023-09-07T12:13:20;102968.25;;;22.47;72.91
51781;BME280;37844;57.126;24.288;2023-09-07T12:16:07;102970.00;;;22.57;74.11
51781;BME280;37844;57.126;24.288;2023-09-07T12:18:53;102970.88;;;22.54;73.83
51781;BME280;37844;57.126;24.288;2023-09-07T12:21:37;102975.25;;;22.48;75.54
51781;BME280;37844;57.126;24.288;2023-09-07T12:24:21;102971.78;;;22.42;74.43
51781;BME280;37844;57.126;24.288;2023-09-07T12:27:05;102970.00;;;22.41;74.84
51781;BME280;37844;57.126;24.288;2023-09-07T12:29:50;102968.25;;;22.30;74.32
51781;BME280;37844;57.126;24.288;2023-09-07T12:32:34;102961.28;;;22.21;75.65
51781;BME280;37844;57.126;24.288;2023-09-07T12:35:18;102950.72;;;22.16;75.82
51781;BME280;37844;57.126;24.288;2023-09-07T12:38:03;102948.09;;;22.01;76.60
51781;BME280;37844;57.126;24.288;2023-09-07T12:40:47;102930.59;;;21.95;76.86
51781;BME280;37844;57.126;24.288;2023-09-07T12:43:31;102927.06;;;22.06;77.49
51781;BME280;37844;57.126;24.288;2023-09-07T12:46:15;102930.56;;;22.06;77.92
51781;BME280;37844;57.126;24.288;2023-09-07T12:48:59;102920.94;;;21.94;79.41
51781;BME280;37844;57.126;24.288;2023-09-07T12:51:45;102923.59;;;21.93;78.33
51781;BME280;37844;57.126;24.288;2023-09-07T12:54:30;102920.94;;;21.90;80.76
51781;BME280;37844;57.126;24.288;2023-09-07T12:57:14;102923.56;;;22.03;78.84
51781;BME280;37844;57.126;24.288;2023-09-07T12:59:58;102923.59;;;22.00;78.81
51781;BME280;37844;57.126;24.288;2023-09-07T13:02:49;102917.47;;;21.95;76.97
51781;BME280;37844;57.126;24.288;2023-09-07T13:05:33;102924.47;;;21.90;78.84
51781;BME280;37844;57.126;24.288;2023-09-07T13:08:18;102923.56;;;21.76;79.90
51781;BME280;37844;57.126;24.288;2023-09-07T13:11:02;102918.31;;;21.65;79.73
51781;BME280;37844;57.126;24.288;2023-09-07T13:13:46;102916.53;;;21.66;81.45
51781;BME280;37844;57.126;24.288;2023-09-07T13:16:30;102920.94;;;21.65;79.78
51781;BME280;37844;57.126;24.288;2023-09-07T13:19:16;102912.16;;;21.63;80.53
51781;BME280;37844;57.126;24.288;2023-09-07T13:22:00;102899.91;;;21.64;79.65
51781;BME280;37844;57.126;24.288;2023-09-07T13:24:44;102910.41;;;21.64;80.06
51781;BME280;37844;57.126;24.288;2023-09-07T13:27:28;102906.03;;;21.49;79.26
51781;BME280;37844;57.126;24.288;2023-09-07T13:30:12;102898.09;;;21.29;79.89
51781;BME280;37844;57.126;24.288;2023-09-07T13:32:56;102901.59;;;21.34;80.86
51781;BME280;37844;57.126;24.288;2023-09-07T13:35:40;102907.72;;;21.31;81.69
51781;BME280;37844;57.126;24.288;2023-09-07T13:38:24;102903.38;;;21.39;82.00
51781;BME280;37844;57.126;24.288;2023-09-07T13:41:09;102892.84;;;21.29;80.68
51781;BME280;37844;57.126;24.288;2023-09-07T13:43:53;102894.56;;;21.22;81.22
51781;BME280;37844;57.126;24.288;2023-09-07T13:46:37;102891.88;;;21.04;80.60
51781;BME280;37844;57.126;24.288;2023-09-07T13:49:21;102884.84;;;20.96;79.65
51781;BME280;37844;57.126;24.288;2023-09-07T13:52:05;102878.72;;;20.88;82.12
51781;BME280;37844;57.126;24.288;2023-09-07T13:54:49;102885.75;;;20.99;84.42
51781;BME280;37844;57.126;24.288;2023-09-07T13:57:33;102887.47;;;21.00;84.39
51781;BME280;37844;57.126;24.288;2023-09-07T14:00:18;102882.25;;;21.03;84.84
51781;BME280;37844;57.126;24.288;2023-09-07T14:03:10;102878.75;;;20.98;83.39
51781;BME280;37844;57.126;24.288;2023-09-07T14:05:54;102876.06;;;20.84;83.44
51781;BME280;37844;57.126;24.288;2023-09-07T14:08:39;102868.22;;;20.87;85.35